createdAt,value
2022-11-29T00:01:01.655Z,76.68
2022-11-29T00:03:29.968Z,76.19
2022-11-29T00:05:57.936Z,77.25
2022-11-29T00:08:25.431Z,77.17
2022-11-29T00:10:53.345Z,77.38
2022-11-29T00:13:20.799Z,76.60
2022-11-29T00:15:48.286Z,76.66
2022-11-29T00:18:17.072Z,77.12
2022-11-29T00:20:44.538Z,77.15
2022-11-29T00:23:12.017Z,76.72
2022-11-29T00:25:39.867Z,76.61
2022-11-29T00:28:07.512Z,76.87
2022-11-29T00:30:35.020Z,76.69
2022-11-29T00:33:03.033Z,77.12
2022-11-29T00:35:31.831Z,77.79
2022-11-29T00:37:59.328Z,77.25
2022-11-29T00:40:26.792Z,76.75
2022-11-29T00:42:54.235Z,78.00
2022-11-29T00:45:21.820Z,77.05
2022-11-29T00:47:49.257Z,77.40
2022-11-29T00:50:16.779Z,77.45
2022-11-29T00:52:45.570Z,77.39
2022-11-29T00:55:13.022Z,78.24
2022-11-29T00:57:40.486Z,78.74
2022-11-29T01:00:09.359Z,78.88
2022-11-29T01:02:36.878Z,78.33
2022-11-29T01:05:04.573Z,78.17
2022-11-29T01:07:32.079Z,77.90
2022-11-29T01:10:00.882Z,77.49
2022-11-29T01:12:28.341Z,78.05
2022-11-29T01:14:55.783Z,77.79
2022-11-29T01:17:23.271Z,78.72
2022-11-29T01:19:51.239Z,78.64
2022-11-29T01:22:18.739Z,78.43
2022-11-29T01:24:46.416Z,78.59
2022-11-29T01:27:15.566Z,78.72
2022-11-29T01:29:43.058Z,77.94
2022-11-29T01:32:12.302Z,78.28
2022-11-29T01:34:40.352Z,79.35
2022-11-29T01:37:07.852Z,79.48
2022-11-29T01:39:35.598Z,78.92
2022-11-29T01:42:03.061Z,78.17
2022-11-29T01:45:08.868Z,78.40
2022-11-29T01:47:46.943Z,77.52
2022-11-29T01:50:14.655Z,77.77
2022-11-29T01:52:43.028Z,77.66
2022-11-29T01:55:11.128Z,78.10
2022-11-29T01:57:41.870Z,78.53
2022-11-29T02:00:15.496Z,79.43
2022-11-29T02:02:45.289Z,78.55
2022-11-29T02:05:15.215Z,78.24
2022-11-29T02:07:45.700Z,78.09
2022-11-29T02:10:15.555Z,77.99
2022-11-29T02:12:55.257Z,77.31
2022-11-29T02:15:34.214Z,76.88
2022-11-29T02:18:07.574Z,77.40
2022-11-29T02:21:03.847Z,77.10
2022-11-29T02:23:58.367Z,77.01
2022-11-29T02:26:50.352Z,77.32
2022-11-29T02:29:32.612Z,77.32
2022-11-29T02:32:20.411Z,76.67
2022-11-29T02:35:00.111Z,76.82
2022-11-29T02:37:57.851Z,76.76
2022-11-29T02:40:52.151Z,76.78
2022-11-29T02:43:35.556Z,76.44
2022-11-29T02:46:27.752Z,76.62
2022-11-29T02:49:03.468Z,77.22
2022-11-29T02:51:40.024Z,77.79
2022-11-29T02:54:13.119Z,76.45
2022-11-29T02:56:47.557Z,76.67
2022-11-29T02:59:24.551Z,76.98
2022-11-29T03:02:02.238Z,76.38
2022-11-29T03:04:35.405Z,77.27
2022-11-29T03:07:14.220Z,76.08
2022-11-29T03:09:47.220Z,77.28
2022-11-29T03:12:22.850Z,76.63
2022-11-29T03:14:58.210Z,77.03
2022-11-29T03:17:36.549Z,77.19
2022-11-29T03:20:27.077Z,76.78
2022-11-29T03:23:09.672Z,77.30
2022-11-29T03:25:40.673Z,76.79
2022-11-29T03:28:14.451Z,76.33
2022-11-29T03:30:48.873Z,77.24
2022-11-29T03:33:25.586Z,76.98
2022-11-29T03:36:00.493Z,77.33
2022-11-29T03:38:36.025Z,76.96
2022-11-29T03:41:15.004Z,76.90
2022-11-29T03:43:46.670Z,76.95
2022-11-29T03:46:19.753Z,77.63
2022-11-29T03:48:50.692Z,77.07
2022-11-29T03:51:23.164Z,77.22
2022-11-29T03:53:58.200Z,77.06
2022-11-29T03:56:32.438Z,76.79
2022-11-29T03:59:13.204Z,77.39
2022-11-29T04:02:09.100Z,77.19
2022-11-29T04:05:08.828Z,77.20
2022-11-29T04:07:49.950Z,78.01
2022-11-29T04:10:28.823Z,77.27
2022-11-29T04:13:26.254Z,77.02
2022-11-29T04:16:25.721Z,77.74
2022-11-29T04:19:37.599Z,78.32
2022-11-29T04:22:23.862Z,77.67
2022-11-29T04:25:23.213Z,77.20
2022-11-29T04:28:33.646Z,77.36
2022-11-29T04:31:14.521Z,77.44
2022-11-29T04:34:16.532Z,76.96
2022-11-29T04:36:58.057Z,77.10
2022-11-29T04:39:51.184Z,76.98
2022-11-29T04:42:48.418Z,77.06
2022-11-29T04:45:38.600Z,76.54
2022-11-29T04:48:24.825Z,76.89
2022-11-29T04:51:04.987Z,76.91
2022-11-29T04:53:53.767Z,77.11
2022-11-29T04:56:29.467Z,76.11
2022-11-29T04:59:03.138Z,76.74
2022-11-29T05:01:42.284Z,76.68
2022-11-29T05:04:18.160Z,76.01
2022-11-29T05:06:59.253Z,76.55
2022-11-29T05:09:37.852Z,76.82
2022-11-29T05:12:15.349Z,77.02
2022-11-29T05:15:02.890Z,77.18
2022-11-29T05:17:43.327Z,76.35
2022-11-29T05:20:26.421Z,76.26
2022-11-29T05:23:05.958Z,75.91
2022-11-29T05:25:41.397Z,77.09
2022-11-29T05:28:16.650Z,76.69
2022-11-29T05:30:55.323Z,76.78
2022-11-29T05:33:38.535Z,77.19
2022-11-29T05:36:18.301Z,77.28
2022-11-29T05:38:58.128Z,76.40
2022-11-29T05:41:44.847Z,76.16
2022-11-29T05:44:16.466Z,76.11
2022-11-29T05:46:55.051Z,76.58
2022-11-29T05:49:34.372Z,76.84
2022-11-29T05:52:20.099Z,75.97
2022-11-29T05:54:52.203Z,75.92
2022-11-29T05:57:38.329Z,74.72
2022-11-29T06:00:07.615Z,74.62
2022-11-29T06:02:49.789Z,75.26
2022-11-29T06:05:26.880Z,74.84
2022-11-29T06:07:59.383Z,75.12
2022-11-29T06:10:32.673Z,74.76
2022-11-29T06:13:11.058Z,74.67
2022-11-29T06:15:56.553Z,74.81
2022-11-29T06:18:46.131Z,74.49
2022-11-29T06:21:23.767Z,74.75
2022-11-29T06:24:26.080Z,75.36
2022-11-29T06:27:14.717Z,75.09
2022-11-29T06:29:49.297Z,74.47
2022-11-29T06:32:25.418Z,74.73
2022-11-29T06:34:58.850Z,74.13
2022-11-29T06:37:34.327Z,74.86
2022-11-29T06:40:02.303Z,73.91
2022-11-29T06:42:29.777Z,74.05
2022-11-29T06:44:57.932Z,74.43
2022-11-29T06:47:30.760Z,74.77
2022-11-29T06:50:04.609Z,73.49
2022-11-29T06:52:44.738Z,74.33
2022-11-29T06:55:17.981Z,74.24
2022-11-29T06:58:02.097Z,74.44
2022-11-29T07:00:40.493Z,73.75
2022-11-29T07:03:30.583Z,73.51
2022-11-29T07:05:59.099Z,73.59
2022-11-29T07:08:28.535Z,73.10
2022-11-29T07:10:56.568Z,72.79
2022-11-29T07:13:24.549Z,73.36
2022-11-29T07:16:01.633Z,73.54
2022-11-29T07:18:35.071Z,73.32
2022-11-29T07:21:14.603Z,74.20
2022-11-29T07:23:53.907Z,73.84
2022-11-29T07:26:30.066Z,74.08
2022-11-29T07:29:16.853Z,73.92
2022-11-29T07:31:55.410Z,73.91
2022-11-29T07:34:30.916Z,73.37
2022-11-29T07:37:05.032Z,73.83
2022-11-29T07:39:44.905Z,73.92
2022-11-29T07:42:20.618Z,74.01
2022-11-29T07:44:57.009Z,74.11
2022-11-29T07:47:24.480Z,74.23
2022-11-29T07:49:52.019Z,73.90
2022-11-29T07:52:19.600Z,74.12
2022-11-29T07:54:48.610Z,74.04
2022-11-29T07:57:16.130Z,73.63
2022-11-29T07:59:43.818Z,74.31
2022-11-29T08:02:12.092Z,73.49
2022-11-29T08:04:43.205Z,72.99
2022-11-29T08:07:11.219Z,73.31
2022-11-29T08:09:38.666Z,73.36
2022-11-29T08:12:08.293Z,73.40
2022-11-29T08:14:35.776Z,72.86
2022-11-29T08:17:03.451Z,73.37
2022-11-29T08:19:30.875Z,72.99
2022-11-29T08:21:58.397Z,73.32
2022-11-29T08:24:26.959Z,73.71
2022-11-29T08:26:54.585Z,73.07
2022-11-29T08:29:23.666Z,73.29
2022-11-29T08:31:53.222Z,73.77
2022-11-29T08:34:21.160Z,72.57
2022-11-29T08:36:48.768Z,73.07
2022-11-29T08:39:16.237Z,72.34
2022-11-29T08:41:44.096Z,73.14
2022-11-29T08:44:11.537Z,73.40
2022-11-29T08:46:58.048Z,73.39
2022-11-29T08:49:25.547Z,73.02
2022-11-29T08:52:13.609Z,73.26
2022-11-29T08:54:40.090Z,73.29
2022-11-29T08:57:38.458Z,72.85
2022-11-29T08:59:55.070Z,73.28
2022-11-29T09:02:24.001Z,73.21
2022-11-29T09:04:51.456Z,72.53
2022-11-29T09:07:18.962Z,72.88
2022-11-29T09:09:46.419Z,73.25
2022-11-29T09:12:13.870Z,73.04
2022-11-29T09:14:41.650Z,72.92
2022-11-29T09:17:09.156Z,72.99
2022-11-29T09:19:37.967Z,72.37
2022-11-29T09:22:05.484Z,72.33
2022-11-29T09:24:34.227Z,72.64
2022-11-29T09:27:01.690Z,72.48
2022-11-29T09:29:29.182Z,72.51
2022-11-29T09:31:56.687Z,72.67
2022-11-29T09:34:24.443Z,72.58
2022-11-29T09:36:53.289Z,72.61
2022-11-29T09:39:20.861Z,72.20
2022-11-29T09:42:22.112Z,72.35
2022-11-29T09:45:01.546Z,71.56
2022-11-29T09:48:02.177Z,72.75
2022-11-29T09:50:34.825Z,71.96
2022-11-29T09:53:21.117Z,72.31
2022-11-29T09:56:01.168Z,72.18
2022-11-29T09:58:33.897Z,72.32
2022-11-29T10:01:05.353Z,71.95
2022-11-29T10:03:37.163Z,72.19
2022-11-29T10:06:09.679Z,71.40
2022-11-29T10:08:44.050Z,71.70
2022-11-29T10:11:20.414Z,72.05
2022-11-29T10:13:53.008Z,71.78
2022-11-29T10:16:26.835Z,73.14
2022-11-29T10:18:59.744Z,72.99
2022-11-29T10:21:32.688Z,72.41
2022-11-29T10:24:06.349Z,72.00
2022-11-29T10:26:35.498Z,72.12
2022-11-29T10:29:03.502Z,72.71
2022-11-29T10:31:36.464Z,73.07
2022-11-29T10:34:12.908Z,71.96
2022-11-29T10:36:44.409Z,72.01
2022-11-29T10:39:18.284Z,71.42
2022-11-29T10:41:46.325Z,72.18
2022-11-29T10:44:15.813Z,71.83
2022-11-29T10:46:43.455Z,72.29
2022-11-29T10:49:15.846Z,71.85
2022-11-29T10:51:43.661Z,71.85
2022-11-29T10:54:29.660Z,72.55
2022-11-29T10:56:58.076Z,72.64
2022-11-29T10:59:27.455Z,71.77
2022-11-29T11:01:55.471Z,71.84
2022-11-29T11:04:29.287Z,71.10
2022-11-29T11:07:00.880Z,70.88
2022-11-29T11:09:37.598Z,71.22
2022-11-29T11:12:08.884Z,71.58
2022-11-29T11:14:38.559Z,70.79
2022-11-29T11:17:22.429Z,71.28
2022-11-29T11:19:57.012Z,71.46
2022-11-29T11:22:26.817Z,70.91
2022-11-29T11:25:02.009Z,71.19
2022-11-29T11:27:30.925Z,71.32
2022-11-29T11:29:59.471Z,71.77
2022-11-29T11:32:27.109Z,71.60
2022-11-29T11:34:55.768Z,71.04
2022-11-29T11:37:26.012Z,71.31
2022-11-29T11:39:56.675Z,71.02
2022-11-29T11:42:38.653Z,71.55
2022-11-29T11:45:23.907Z,71.98
2022-11-29T11:47:53.871Z,71.03
2022-11-29T11:50:29.479Z,71.54
2022-11-29T11:52:59.237Z,71.57
2022-11-29T11:55:33.263Z,71.80
2022-11-29T11:58:10.274Z,72.05
2022-11-29T12:01:02.847Z,72.56
2022-11-29T12:03:44.538Z,71.88
2022-11-29T12:06:25.657Z,71.60
2022-11-29T12:08:58.650Z,71.59
2022-11-29T12:11:27.250Z,72.28
2022-11-29T12:14:00.099Z,72.73
2022-11-29T12:16:34.304Z,72.60
2022-11-29T12:19:05.966Z,72.42
2022-11-29T12:21:39.287Z,71.94
2022-11-29T12:24:19.872Z,72.62
2022-11-29T12:26:57.159Z,71.46
2022-11-29T12:29:33.547Z,72.09
2022-11-29T12:32:12.693Z,71.83
2022-11-29T12:34:53.650Z,72.38
2022-11-29T12:37:26.050Z,72.56
2022-11-29T12:39:58.524Z,72.62
2022-11-29T12:42:36.556Z,72.48
2022-11-29T12:45:25.178Z,72.68
2022-11-29T12:48:04.887Z,72.35
2022-11-29T12:50:45.294Z,73.14
2022-11-29T12:53:27.538Z,72.70
2022-11-29T12:56:05.987Z,72.60
2022-11-29T12:58:46.223Z,72.20
2022-11-29T13:01:23.625Z,72.81
2022-11-29T13:03:59.840Z,73.29
2022-11-29T13:06:32.488Z,73.85
2022-11-29T13:09:21.683Z,73.30
2022-11-29T13:11:56.888Z,74.34
2022-11-29T13:14:43.892Z,74.57
2022-11-29T13:17:26.074Z,73.65
2022-11-29T13:19:57.280Z,74.09
2022-11-29T13:22:29.676Z,74.27
2022-11-29T13:25:00.083Z,74.34
2022-11-29T13:27:32.001Z,74.14
2022-11-29T13:30:00.523Z,74.18
2022-11-29T13:32:36.063Z,74.23
2022-11-29T13:35:08.809Z,74.60
2022-11-29T13:37:43.635Z,74.40
2022-11-29T13:40:24.324Z,74.37
2022-11-29T13:43:01.067Z,74.22
2022-11-29T13:45:37.391Z,74.80
2022-11-29T13:48:27.844Z,74.58
2022-11-29T13:50:57.120Z,75.48
2022-11-29T13:53:26.311Z,74.85
2022-11-29T13:56:01.285Z,74.60
2022-11-29T13:58:37.728Z,75.19
2022-11-29T14:01:09.018Z,74.52
2022-11-29T14:03:42.508Z,74.67
2022-11-29T14:06:20.904Z,75.11
2022-11-29T14:09:19.666Z,74.86
2022-11-29T14:11:50.543Z,73.69
2022-11-29T14:14:27.083Z,73.95
2022-11-29T14:16:58.935Z,73.49
2022-11-29T14:19:33.709Z,74.27
2022-11-29T14:22:25.140Z,74.14
2022-11-29T14:25:16.531Z,74.24
2022-11-29T14:28:01.637Z,73.95
2022-11-29T14:30:45.102Z,73.58
2022-11-29T14:33:24.042Z,73.60
2022-11-29T14:36:17.920Z,73.56
2022-11-29T14:38:55.852Z,72.86
2022-11-29T14:41:32.779Z,73.32
2022-11-29T14:44:15.102Z,73.18
2022-11-29T14:46:42.644Z,74.29
2022-11-29T14:49:22.879Z,73.89
2022-11-29T14:52:11.237Z,73.27
2022-11-29T14:54:55.660Z,73.65
2022-11-29T14:58:05.692Z,74.42
2022-11-29T15:00:41.756Z,75.32
2022-11-29T15:03:13.735Z,76.06
2022-11-29T15:05:43.816Z,75.95
2022-11-29T15:08:17.457Z,75.45
2022-11-29T15:10:50.020Z,74.57
2022-11-29T15:13:24.048Z,74.27
2022-11-29T15:16:12.686Z,74.27
2022-11-29T15:19:02.593Z,73.80
2022-11-29T15:21:38.671Z,73.28
2022-11-29T15:24:13.451Z,73.06
2022-11-29T15:26:55.735Z,72.86
2022-11-29T15:29:23.519Z,73.03
2022-11-29T15:31:54.266Z,73.35
2022-11-29T15:34:26.546Z,73.06
2022-11-29T15:36:54.076Z,73.28
2022-11-29T15:39:31.720Z,73.63
2022-11-29T15:42:04.118Z,73.89
2022-11-29T15:44:33.162Z,74.15
2022-11-29T15:47:17.663Z,74.46
2022-11-29T15:49:45.176Z,73.73
2022-11-29T15:52:20.481Z,73.27
2022-11-29T15:54:53.100Z,73.99
2022-11-29T15:57:26.168Z,73.02
2022-11-29T15:59:56.688Z,73.99
2022-11-29T16:02:27.540Z,73.83
2022-11-29T16:04:58.905Z,74.34
2022-11-29T16:07:31.996Z,74.54
2022-11-29T16:10:04.752Z,74.13
2022-11-29T16:12:33.092Z,74.19
2022-11-29T16:15:02.045Z,74.93
2022-11-29T16:17:31.835Z,75.39
2022-11-29T16:20:22.604Z,75.12
2022-11-29T16:23:04.072Z,75.24
2022-11-29T16:25:37.669Z,74.86
2022-11-29T16:28:06.442Z,74.26
2022-11-29T16:30:34.161Z,75.02
2022-11-29T16:33:03.947Z,74.63
2022-11-29T16:35:33.726Z,75.02
2022-11-29T16:38:04.476Z,74.83
2022-11-29T16:40:35.589Z,73.76
2022-11-29T16:43:09.152Z,74.27
2022-11-29T16:45:38.666Z,73.77
2022-11-29T16:48:29.952Z,74.08
2022-11-29T16:51:18.067Z,74.26
2022-11-29T16:53:49.824Z,75.17
2022-11-29T16:56:22.198Z,75.39
2022-11-29T16:59:24.922Z,75.86
2022-11-29T17:01:41.558Z,75.17
2022-11-29T17:04:10.070Z,74.83
2022-11-29T17:06:37.933Z,74.91
2022-11-29T17:09:06.020Z,74.57
2022-11-29T17:11:34.826Z,74.30
2022-11-29T17:14:02.316Z,74.28
2022-11-29T17:16:29.830Z,74.41
2022-11-29T17:18:57.287Z,74.13
2022-11-29T17:21:26.007Z,74.32
2022-11-29T17:23:54.476Z,75.34
2022-11-29T17:26:22.978Z,74.92
2022-11-29T17:28:53.108Z,74.31
2022-11-29T17:31:22.689Z,74.38
2022-11-29T17:33:50.301Z,73.81
2022-11-29T17:36:20.900Z,73.55
2022-11-29T17:38:48.725Z,73.33
2022-11-29T17:41:18.548Z,73.40
2022-11-29T17:43:46.019Z,72.79
2022-11-29T17:46:16.740Z,73.02
2022-11-29T17:48:46.460Z,72.95
2022-11-29T17:51:43.751Z,72.87
2022-11-29T17:54:04.281Z,73.00
2022-11-29T17:56:32.247Z,72.89
2022-11-29T17:59:01.804Z,73.24
2022-11-29T18:01:33.243Z,73.39
2022-11-29T18:04:02.621Z,72.04
2022-11-29T18:06:32.202Z,72.49
2022-11-29T18:09:01.328Z,72.67
2022-11-29T18:11:30.893Z,72.19
2022-11-29T18:14:00.104Z,72.87
2022-11-29T18:16:30.596Z,72.55
2022-11-29T18:19:00.320Z,72.18
2022-11-29T18:21:28.459Z,72.32
2022-11-29T18:23:56.094Z,72.56
2022-11-29T18:26:25.628Z,72.12
2022-11-29T18:28:53.436Z,72.76
2022-11-29T18:31:22.662Z,72.34
2022-11-29T18:33:54.248Z,72.20
2022-11-29T18:36:24.009Z,72.44
2022-11-29T18:38:56.732Z,72.73
2022-11-29T18:41:25.852Z,72.40
2022-11-29T18:43:58.754Z,71.98
2022-11-29T18:46:28.171Z,73.06
2022-11-29T18:48:57.100Z,72.71
2022-11-29T18:51:24.617Z,72.75
2022-11-29T18:53:53.104Z,72.38
2022-11-29T18:56:23.008Z,72.17
2022-11-29T18:58:58.203Z,71.93
2022-11-29T19:01:27.875Z,72.03
2022-11-29T19:04:00.079Z,72.14
2022-11-29T19:06:35.437Z,72.41
2022-11-29T19:09:07.795Z,71.82
2022-11-29T19:11:35.488Z,72.67
2022-11-29T19:14:05.196Z,72.31
2022-11-29T19:16:34.372Z,72.32
2022-11-29T19:19:04.131Z,73.02
2022-11-29T19:21:34.272Z,72.80
2022-11-29T19:24:03.485Z,72.66
2022-11-29T19:26:32.574Z,72.55
2022-11-29T19:29:01.788Z,72.52
2022-11-29T19:31:29.510Z,72.54
2022-11-29T19:33:58.075Z,72.71
2022-11-29T19:36:29.611Z,72.71
2022-11-29T19:38:58.061Z,73.04
2022-11-29T19:41:27.471Z,72.38
2022-11-29T19:43:56.458Z,72.85
2022-11-29T19:46:26.413Z,72.24
2022-11-29T19:49:01.409Z,72.57
2022-11-29T19:51:31.257Z,73.13
2022-11-29T19:54:00.658Z,72.80
2022-11-29T19:56:29.847Z,72.89
2022-11-29T19:58:59.615Z,73.17
2022-11-29T20:01:36.049Z,72.72
2022-11-29T20:04:07.738Z,72.80
2022-11-29T20:06:36.944Z,72.89
2022-11-29T20:09:06.047Z,73.16
2022-11-29T20:11:33.651Z,72.91
2022-11-29T20:14:03.497Z,72.77
2022-11-29T20:16:32.219Z,72.70
2022-11-29T20:19:00.207Z,72.88
2022-11-29T20:21:29.598Z,72.82
2022-11-29T20:24:00.536Z,73.04
2022-11-29T20:26:28.987Z,73.46
2022-11-29T20:28:56.662Z,74.37
2022-11-29T20:31:34.210Z,74.28
2022-11-29T20:34:02.168Z,73.75
2022-11-29T20:36:43.161Z,73.22
2022-11-29T20:39:26.172Z,73.49
2022-11-29T20:42:10.717Z,74.07
2022-11-29T20:44:40.217Z,73.94
2022-11-29T20:47:17.180Z,74.37
2022-11-29T20:49:45.075Z,74.23
2022-11-29T20:52:24.920Z,74.54
2022-11-29T20:54:54.224Z,74.11
2022-11-29T20:57:23.983Z,74.10
2022-11-29T20:59:51.552Z,74.64
2022-11-29T21:02:23.257Z,74.46
2022-11-29T21:04:51.020Z,74.48
2022-11-29T21:07:18.876Z,74.44
2022-11-29T21:09:46.934Z,74.12
2022-11-29T21:12:16.956Z,74.19
2022-11-29T21:14:45.147Z,74.64
2022-11-29T21:17:13.572Z,74.74
2022-11-29T21:19:41.577Z,75.04
2022-11-29T21:22:17.911Z,74.76
2022-11-29T21:24:54.436Z,74.64
2022-11-29T21:27:28.216Z,74.88
2022-11-29T21:29:56.722Z,74.91
2022-11-29T21:32:25.853Z,75.29
2022-11-29T21:34:53.855Z,75.19
2022-11-29T21:37:26.079Z,75.13
2022-11-29T21:39:54.565Z,75.91
2022-11-29T21:42:23.490Z,75.54
2022-11-29T21:44:51.072Z,75.67
2022-11-29T21:47:19.810Z,75.72
2022-11-29T21:49:47.909Z,75.64
2022-11-29T21:52:22.047Z,75.95
2022-11-29T21:54:50.353Z,75.09
2022-11-29T21:57:17.901Z,75.13
2022-11-29T21:59:47.288Z,75.04
2022-11-29T22:02:14.957Z,74.66
2022-11-29T22:04:42.784Z,74.38
2022-11-29T22:07:10.456Z,74.37
2022-11-29T22:09:37.969Z,74.77
2022-11-29T22:12:19.769Z,74.87
2022-11-29T22:14:54.492Z,75.03
2022-11-29T22:17:22.011Z,74.14
2022-11-29T22:19:49.491Z,74.98
2022-11-29T22:22:17.101Z,74.90
2022-11-29T22:24:44.807Z,75.35
2022-11-29T22:27:12.499Z,75.58
2022-11-29T22:29:39.957Z,75.68
2022-11-29T22:32:08.793Z,75.43
2022-11-29T22:34:36.257Z,75.69
2022-11-29T22:37:03.760Z,75.19
2022-11-29T22:39:31.297Z,75.04
2022-11-29T22:41:58.823Z,74.76
2022-11-29T22:44:26.286Z,75.48
2022-11-29T22:46:53.889Z,75.55
2022-11-29T22:49:22.796Z,74.68
2022-11-29T22:51:50.255Z,74.86
2022-11-29T22:54:17.888Z,74.43
2022-11-29T22:56:46.413Z,74.61
2022-11-29T22:59:14.053Z,74.83
2022-11-29T23:01:42.458Z,75.18
2022-11-29T23:04:11.040Z,74.61
2022-11-29T23:06:42.008Z,74.49
2022-11-29T23:09:11.983Z,74.69
2022-11-29T23:11:39.824Z,74.57
2022-11-29T23:14:07.377Z,74.37
2022-11-29T23:16:35.171Z,74.34
2022-11-29T23:19:02.868Z,73.78
2022-11-29T23:21:32.405Z,74.47
2022-11-29T23:24:01.719Z,74.30
2022-11-29T23:26:31.195Z,74.00
2022-11-29T23:28:59.559Z,74.00
2022-11-29T23:31:27.203Z,73.93
2022-11-29T23:33:55.001Z,74.05
2022-11-29T23:36:22.530Z,74.22
2022-11-29T23:38:50.290Z,74.12
2022-11-29T23:41:19.225Z,74.29
2022-11-29T23:43:46.908Z,74.28
2022-11-29T23:46:16.269Z,74.22
2022-11-29T23:48:43.953Z,74.10
2022-11-29T23:51:12.082Z,74.46
2022-11-29T23:53:40.191Z,74.18
2022-11-29T23:56:10.633Z,74.28
2022-11-29T23:58:40.179Z,74.18
